createdAt,value
2019-04-03T00:00:19.514Z,975.40
2019-04-03T00:01:19.550Z,975.45
2019-04-03T00:02:19.511Z,975.35
2019-04-03T00:03:19.513Z,975.47
2019-04-03T00:04:19.563Z,975.51
2019-04-03T00:05:19.538Z,975.40
2019-04-03T00:06:19.521Z,975.40
2019-04-03T00:07:19.503Z,975.50
2019-04-03T00:08:19.516Z,975.39
2019-04-03T00:09:19.525Z,975.36
2019-04-03T00:10:19.518Z,975.33
2019-04-03T00:11:19.522Z,975.41
2019-04-03T00:12:19.530Z,975.34
2019-04-03T00:13:19.497Z,975.37
2019-04-03T00:14:19.547Z,975.43
2019-04-03T00:15:19.585Z,975.34
2019-04-03T00:16:19.517Z,975.40
2019-04-03T00:17:19.553Z,975.35
2019-04-03T00:18:19.526Z,975.34
2019-04-03T00:19:19.506Z,975.31
2019-04-03T00:20:19.491Z,975.30
2019-04-03T00:21:20.244Z,975.35
2019-04-03T00:22:21.126Z,975.27
2019-04-03T00:23:20.596Z,975.23
2019-04-03T00:24:22.228Z,975.30
2019-04-03T00:25:20.597Z,975.31
2019-04-03T00:26:20.477Z,975.24
2019-04-03T00:27:21.952Z,975.28
2019-04-03T00:28:20.728Z,975.33
2019-04-03T00:29:20.697Z,975.29
2019-04-03T00:30:21.869Z,975.28
2019-04-03T00:31:19.675Z,975.30
2019-04-03T00:32:19.533Z,975.30
2019-04-03T00:33:19.548Z,975.24
2019-04-03T00:34:19.509Z,975.28
2019-04-03T00:35:19.529Z,975.23
2019-04-03T00:36:19.564Z,975.20
2019-04-03T00:37:19.528Z,975.23
2019-04-03T00:38:19.527Z,975.16
2019-04-03T00:39:19.546Z,975.20
2019-04-03T00:40:19.625Z,975.28
2019-04-03T00:41:19.544Z,975.13
2019-04-03T00:42:19.527Z,975.20
2019-04-03T00:43:19.525Z,975.27
2019-04-03T00:44:19.536Z,975.24
2019-04-03T00:45:19.552Z,975.16
2019-04-03T00:46:19.683Z,975.20
2019-04-03T00:47:19.561Z,975.20
2019-04-03T00:48:19.677Z,975.29
2019-04-03T00:49:19.532Z,975.15
2019-04-03T00:50:19.528Z,975.13
2019-04-03T00:51:19.557Z,975.10
2019-04-03T00:52:19.550Z,975.12
2019-04-03T00:53:19.568Z,975.19
2019-04-03T00:54:19.576Z,975.11
2019-04-03T00:55:19.531Z,975.08
2019-04-03T00:56:19.544Z,975.06
2019-04-03T00:57:19.569Z,975.04
2019-04-03T00:58:19.553Z,975.04
2019-04-03T00:59:19.665Z,974.97
2019-04-03T01:00:19.585Z,974.96
2019-04-03T01:01:19.545Z,974.98
2019-04-03T01:02:19.582Z,975.00
2019-04-03T01:03:19.635Z,974.89
2019-04-03T01:04:19.572Z,974.99
2019-04-03T01:05:19.580Z,974.94
2019-04-03T01:06:19.593Z,974.92
2019-04-03T01:07:19.592Z,974.98
2019-04-03T01:08:19.612Z,974.88
2019-04-03T01:09:19.656Z,974.91
2019-04-03T01:10:19.650Z,974.90
2019-04-03T01:11:19.650Z,974.88
2019-04-03T01:12:19.657Z,974.92
2019-04-03T01:13:19.668Z,974.81
2019-04-03T01:14:19.683Z,974.77
2019-04-03T01:15:19.733Z,974.82
2019-04-03T01:16:19.723Z,974.80
2019-04-03T01:17:19.725Z,974.78
2019-04-03T01:18:19.867Z,974.76
2019-04-03T01:19:19.739Z,974.75
2019-04-03T01:20:19.786Z,974.80
2019-04-03T01:21:19.857Z,974.73
2019-04-03T01:22:19.793Z,974.73
2019-04-03T01:23:19.759Z,974.68
2019-04-03T01:24:19.836Z,974.73
2019-04-03T01:25:19.806Z,974.68
2019-04-03T01:26:19.796Z,974.65
2019-04-03T01:27:19.855Z,974.64
2019-04-03T01:28:19.892Z,974.70
2019-04-03T01:29:19.880Z,974.61
2019-04-03T01:30:19.899Z,974.68
2019-04-03T01:31:19.881Z,974.59
2019-04-03T01:32:20.011Z,974.65
2019-04-03T01:33:20.049Z,974.59
2019-04-03T01:34:19.925Z,974.51
2019-04-03T01:35:20.009Z,974.57
2019-04-03T01:36:20.105Z,974.61
2019-04-03T01:37:19.951Z,974.56
2019-04-03T01:38:19.985Z,974.53
2019-04-03T01:39:21.020Z,974.57
2019-04-03T01:40:20.888Z,974.59
2019-04-03T01:41:21.223Z,974.47
2019-04-03T01:42:22.172Z,974.51
2019-04-03T01:43:20.011Z,974.47
2019-04-03T01:44:20.034Z,974.44
2019-04-03T01:45:20.088Z,974.49
2019-04-03T01:46:20.272Z,974.49
2019-04-03T01:47:20.094Z,974.45
2019-04-03T01:48:20.094Z,974.46
2019-04-03T01:49:20.076Z,974.41
2019-04-03T01:50:20.104Z,974.49
2019-04-03T01:51:20.149Z,974.40
2019-04-03T01:52:20.132Z,974.32
2019-04-03T01:53:20.129Z,974.30
2019-04-03T01:54:20.159Z,974.39
2019-04-03T01:55:20.155Z,974.33
2019-04-03T01:56:20.174Z,974.29
2019-04-03T01:57:20.214Z,974.36
2019-04-03T01:58:20.304Z,974.33
2019-04-03T01:59:20.222Z,974.35
2019-04-03T02:00:20.267Z,974.23
2019-04-03T02:01:20.226Z,974.25
2019-04-03T02:02:20.245Z,974.18
2019-04-03T02:03:20.287Z,974.24
2019-04-03T02:04:20.281Z,974.26
2019-04-03T02:05:20.272Z,974.27
2019-04-03T02:06:20.301Z,974.24
2019-04-03T02:07:20.293Z,974.26
2019-04-03T02:08:20.311Z,974.18
2019-04-03T02:09:20.354Z,974.27
2019-04-03T02:10:20.351Z,974.18
2019-04-03T02:11:20.365Z,974.20
2019-04-03T02:12:20.533Z,974.18
2019-04-03T02:13:21.887Z,974.25
2019-04-03T02:14:21.768Z,974.24
2019-04-03T02:15:21.554Z,974.16
2019-04-03T02:16:21.414Z,974.18
2019-04-03T02:17:21.841Z,974.14
2019-04-03T02:18:20.509Z,974.16
2019-04-03T02:19:20.423Z,974.06
2019-04-03T02:20:20.446Z,974.10
2019-04-03T02:21:20.835Z,974.14
2019-04-03T02:22:20.489Z,974.16
2019-04-03T02:23:20.495Z,974.14
2019-04-03T02:24:20.503Z,974.18
2019-04-03T02:25:20.518Z,974.11
2019-04-03T02:26:20.707Z,974.12
2019-04-03T02:27:20.627Z,974.09
2019-04-03T02:28:20.559Z,974.11
2019-04-03T02:29:20.571Z,974.11
2019-04-03T02:30:20.638Z,974.08
2019-04-03T02:31:20.600Z,974.10
2019-04-03T02:32:23.271Z,974.03
2019-04-03T02:33:20.810Z,974.02
2019-04-03T02:34:20.609Z,974.08
2019-04-03T02:35:20.587Z,974.08
2019-04-03T02:36:20.607Z,974.08
2019-04-03T02:37:20.632Z,974.04
2019-04-03T02:38:22.557Z,973.98
2019-04-03T02:39:20.625Z,973.95
2019-04-03T02:40:20.924Z,974.06
2019-04-03T02:41:20.597Z,974.00
2019-04-03T02:42:20.621Z,974.01
2019-04-03T02:43:20.839Z,973.95
2019-04-03T02:44:20.599Z,973.95
2019-04-03T02:45:23.372Z,973.97
2019-04-03T02:46:20.628Z,973.97
2019-04-03T02:47:20.606Z,974.01
2019-04-03T02:48:20.685Z,973.99
2019-04-03T02:49:20.894Z,973.97
2019-04-03T02:50:20.627Z,973.93
2019-04-03T02:51:20.682Z,973.95
2019-04-03T02:52:24.172Z,973.93
2019-04-03T02:53:20.652Z,973.93
2019-04-03T02:54:20.628Z,973.97
2019-04-03T02:55:20.619Z,973.97
2019-04-03T02:56:20.627Z,973.90
2019-04-03T02:57:20.838Z,973.87
2019-04-03T02:58:22.247Z,973.94
2019-04-03T02:59:20.625Z,973.92
2019-04-03T03:00:20.646Z,973.87
2019-04-03T03:01:20.715Z,973.89
2019-04-03T03:02:20.607Z,973.92
2019-04-03T03:03:20.635Z,973.84
2019-04-03T03:04:21.979Z,973.79
2019-04-03T03:05:20.606Z,973.81
2019-04-03T03:06:20.653Z,973.73
2019-04-03T03:07:20.617Z,973.80
2019-04-03T03:08:23.009Z,973.79
2019-04-03T03:09:20.750Z,973.73
2019-04-03T03:10:20.710Z,973.76
2019-04-03T03:11:23.255Z,973.74
2019-04-03T03:12:20.636Z,973.78
2019-04-03T03:13:20.603Z,973.72
2019-04-03T03:14:20.625Z,973.72
2019-04-03T03:15:20.652Z,973.67
2019-04-03T03:16:20.636Z,973.66
2019-04-03T03:17:22.531Z,973.68
2019-04-03T03:18:20.646Z,973.57
2019-04-03T03:19:20.612Z,973.70
2019-04-03T03:20:20.643Z,973.68
2019-04-03T03:21:20.664Z,973.61
2019-04-03T03:22:20.932Z,973.67
2019-04-03T03:23:23.422Z,973.62
2019-04-03T03:24:20.801Z,973.64
2019-04-03T03:25:20.635Z,973.58
2019-04-03T03:26:20.748Z,973.64
2019-04-03T03:27:20.676Z,973.65
2019-04-03T03:28:20.636Z,973.65
2019-04-03T03:29:24.870Z,973.61
2019-04-03T03:30:36.174Z,973.65
2019-04-03T03:31:44.354Z,973.64
2019-04-03T03:32:29.089Z,973.62
2019-04-03T03:33:29.988Z,973.63
2019-04-03T03:34:45.210Z,973.62
2019-04-03T03:35:28.934Z,973.73
2019-04-03T03:36:24.482Z,973.71
2019-04-03T03:37:20.995Z,973.67
2019-04-03T03:38:20.664Z,973.64
2019-04-03T03:39:20.675Z,973.64
2019-04-03T03:40:20.649Z,973.61
2019-04-03T03:41:22.690Z,973.60
2019-04-03T03:42:20.721Z,973.63
2019-04-03T03:43:20.787Z,973.63
2019-04-03T03:44:20.650Z,973.61
2019-04-03T03:45:21.443Z,973.65
2019-04-03T03:46:20.654Z,973.55
2019-04-03T03:47:20.669Z,973.60
2019-04-03T03:48:20.830Z,973.65
2019-04-03T03:49:20.644Z,973.60
2019-04-03T03:50:23.901Z,973.63
2019-04-03T03:51:20.729Z,973.56
2019-04-03T03:52:20.655Z,973.62
2019-04-03T03:53:20.680Z,973.58
2019-04-03T03:54:20.672Z,973.61
2019-04-03T03:55:22.790Z,973.61
2019-04-03T03:56:20.673Z,973.63
2019-04-03T03:57:20.699Z,973.61
2019-04-03T03:58:20.667Z,973.61
2019-04-03T03:59:20.663Z,973.61
2019-04-03T04:00:23.244Z,973.55
2019-04-03T04:01:20.893Z,973.60
2019-04-03T04:02:20.663Z,973.59
2019-04-03T04:03:20.694Z,973.55
2019-04-03T04:04:20.663Z,973.63
2019-04-03T04:05:22.837Z,973.53
2019-04-03T04:06:20.696Z,973.52
2019-04-03T04:07:20.661Z,973.61
2019-04-03T04:08:20.707Z,973.62
2019-04-03T04:09:20.721Z,973.62
2019-04-03T04:10:24.005Z,973.66
2019-04-03T04:11:20.928Z,973.56
2019-04-03T04:12:21.016Z,973.54
2019-04-03T04:13:20.641Z,973.54
2019-04-03T04:14:22.827Z,973.52
2019-04-03T04:15:20.695Z,973.55
2019-04-03T04:16:21.106Z,973.56
2019-04-03T04:17:20.926Z,973.57
2019-04-03T04:18:24.022Z,973.53
2019-04-03T04:19:20.674Z,973.53
2019-04-03T04:20:20.946Z,973.51
2019-04-03T04:21:20.830Z,973.54
2019-04-03T04:22:20.700Z,973.47
2019-04-03T04:23:23.013Z,973.57
2019-04-03T04:24:20.706Z,973.57
2019-04-03T04:25:20.667Z,973.50
2019-04-03T04:26:20.682Z,973.53
2019-04-03T04:27:20.705Z,973.51
2019-04-03T04:28:20.694Z,973.58
2019-04-03T04:29:20.681Z,973.51
2019-04-03T04:30:20.852Z,973.56
2019-04-03T04:31:20.671Z,973.57
2019-04-03T04:32:20.669Z,973.53
2019-04-03T04:33:20.834Z,973.60
2019-04-03T04:34:20.692Z,973.57
2019-04-03T04:35:22.031Z,973.49
2019-04-03T04:36:23.398Z,973.58
2019-04-03T04:37:20.679Z,973.57
2019-04-03T04:38:20.896Z,973.52
2019-04-03T04:39:20.716Z,973.58
2019-04-03T04:40:20.712Z,973.53
2019-04-03T04:41:20.684Z,973.52
2019-04-03T04:42:20.741Z,973.48
2019-04-03T04:43:20.656Z,973.52
2019-04-03T04:44:20.686Z,973.47
2019-04-03T04:45:20.776Z,973.50
2019-04-03T04:46:20.675Z,973.49
2019-04-03T04:47:20.742Z,973.52
2019-04-03T04:48:21.327Z,973.46
2019-04-03T04:49:22.351Z,973.42
2019-04-03T04:50:20.814Z,973.53
2019-04-03T04:51:20.776Z,973.49
2019-04-03T04:52:20.682Z,973.51
2019-04-03T04:53:20.701Z,973.52
2019-04-03T04:54:20.698Z,973.45
2019-04-03T04:55:20.681Z,973.47
2019-04-03T04:56:20.714Z,973.51
2019-04-03T04:57:20.790Z,973.44
2019-04-03T04:58:20.700Z,973.48
2019-04-03T04:59:20.739Z,973.46
2019-04-03T05:00:20.783Z,973.46
2019-04-03T05:01:20.675Z,973.51
2019-04-03T05:02:20.717Z,973.51
2019-04-03T05:03:21.821Z,973.54
2019-04-03T05:04:20.704Z,973.55
2019-04-03T05:05:20.704Z,973.59
2019-04-03T05:06:20.729Z,973.52
2019-04-03T05:07:20.701Z,973.56
2019-04-03T05:08:20.708Z,973.58
2019-04-03T05:09:20.759Z,973.56
2019-04-03T05:10:20.687Z,973.56
2019-04-03T05:11:20.714Z,973.59
2019-04-03T05:12:20.743Z,973.61
2019-04-03T05:13:20.694Z,973.65
2019-04-03T05:14:20.891Z,973.62
2019-04-03T05:15:23.474Z,973.59
2019-04-03T05:16:20.958Z,973.60
2019-04-03T05:17:20.777Z,973.56
2019-04-03T05:18:20.725Z,973.66
2019-04-03T05:19:20.707Z,973.56
2019-04-03T05:20:20.728Z,973.59
2019-04-03T05:21:21.717Z,973.62
2019-04-03T05:22:23.217Z,973.61
2019-04-03T05:23:20.771Z,973.67
2019-04-03T05:24:20.882Z,973.68
2019-04-03T05:25:20.717Z,973.67
2019-04-03T05:26:21.543Z,973.67
2019-04-03T05:27:20.755Z,973.64
2019-04-03T05:28:20.725Z,973.71
2019-04-03T05:29:20.752Z,973.65
2019-04-03T05:30:21.045Z,973.74
2019-04-03T05:31:20.721Z,973.66
2019-04-03T05:32:20.916Z,973.61
2019-04-03T05:33:20.751Z,973.67
2019-04-03T05:34:20.705Z,973.62
2019-04-03T05:35:21.244Z,973.63
2019-04-03T05:36:20.796Z,973.62
2019-04-03T05:37:20.908Z,973.54
2019-04-03T05:38:22.503Z,973.55
2019-04-03T05:39:23.465Z,973.47
2019-04-03T05:40:20.706Z,973.50
2019-04-03T05:41:20.723Z,973.52
2019-04-03T05:42:20.727Z,973.50
2019-04-03T05:43:20.738Z,973.57
2019-04-03T05:44:23.225Z,973.55
2019-04-03T05:45:20.752Z,973.51
2019-04-03T05:46:20.721Z,973.60
2019-04-03T05:47:20.740Z,973.55
2019-04-03T05:48:20.743Z,973.53
2019-04-03T05:49:20.735Z,973.55
2019-04-03T05:50:20.768Z,973.54
2019-04-03T05:51:20.751Z,973.55
2019-04-03T05:52:20.732Z,973.45
2019-04-03T05:53:20.760Z,973.46
2019-04-03T05:54:20.748Z,973.55
2019-04-03T05:55:20.933Z,973.55
2019-04-03T05:56:20.758Z,973.64
2019-04-03T05:57:20.775Z,973.59
2019-04-03T05:58:20.734Z,973.55
2019-04-03T05:59:20.742Z,973.51
2019-04-03T06:00:20.762Z,973.60
2019-04-03T06:01:20.739Z,973.60
2019-04-03T06:02:21.996Z,973.58
2019-04-03T06:03:24.695Z,973.64
2019-04-03T06:04:20.737Z,973.61
2019-04-03T06:05:20.757Z,973.56
2019-04-03T06:06:20.789Z,973.52
2019-04-03T06:07:20.951Z,973.53
2019-04-03T06:08:20.777Z,973.50
2019-04-03T06:09:22.368Z,973.60
2019-04-03T06:10:20.743Z,973.54
2019-04-03T06:11:21.075Z,973.52
2019-04-03T06:12:20.876Z,973.42
2019-04-03T06:13:21.033Z,973.48
2019-04-03T06:14:23.199Z,973.46
2019-04-03T06:15:22.065Z,973.48
2019-04-03T06:16:23.404Z,973.51
2019-04-03T06:17:20.761Z,973.57
2019-04-03T06:18:20.834Z,973.46
2019-04-03T06:19:20.770Z,973.52
2019-04-03T06:20:20.804Z,973.44
2019-04-03T06:21:21.167Z,973.52
2019-04-03T06:22:21.988Z,973.45
2019-04-03T06:23:21.418Z,973.44
2019-04-03T06:24:22.286Z,973.43
2019-04-03T06:25:20.815Z,973.43
2019-04-03T06:26:20.783Z,973.44
2019-04-03T06:27:20.800Z,973.44
2019-04-03T06:28:20.750Z,973.49
2019-04-03T06:29:20.797Z,973.46
2019-04-03T06:30:20.897Z,973.42
2019-04-03T06:31:20.768Z,973.43
2019-04-03T06:32:23.725Z,973.33
2019-04-03T06:33:20.765Z,973.39
2019-04-03T06:34:20.758Z,973.36
2019-04-03T06:35:20.772Z,973.27
2019-04-03T06:36:20.793Z,973.36
2019-04-03T06:37:22.218Z,973.32
2019-04-03T06:38:20.783Z,973.31
2019-04-03T06:39:23.423Z,973.25
2019-04-03T06:40:20.765Z,973.36
2019-04-03T06:41:20.784Z,973.38
2019-04-03T06:42:21.025Z,973.33
2019-04-03T06:43:20.784Z,973.33
2019-04-03T06:44:22.692Z,973.32
2019-04-03T06:45:20.808Z,973.34
2019-04-03T06:46:20.751Z,973.29
2019-04-03T06:47:20.783Z,973.32
2019-04-03T06:48:20.788Z,973.33
2019-04-03T06:49:20.775Z,973.36
2019-04-03T06:50:20.804Z,973.34
2019-04-03T06:51:20.803Z,973.24
2019-04-03T06:52:21.504Z,973.33
2019-04-03T06:53:20.867Z,973.28
2019-04-03T06:54:20.933Z,973.33
2019-04-03T06:55:20.843Z,973.31
2019-04-03T06:56:20.872Z,973.28
2019-04-03T06:57:20.873Z,973.31
2019-04-03T06:58:20.848Z,973.22
2019-04-03T06:59:20.901Z,973.26
2019-04-03T07:00:20.909Z,973.27
2019-04-03T07:01:20.882Z,973.20
2019-04-03T07:02:20.929Z,973.11
2019-04-03T07:03:22.792Z,973.21
2019-04-03T07:04:21.363Z,973.15
2019-04-03T07:05:20.954Z,973.16
2019-04-03T07:06:20.963Z,973.20
2019-04-03T07:07:32.590Z,973.16
2019-04-03T07:08:30.102Z,973.18
2019-04-03T07:09:22.814Z,973.14
2019-04-03T07:10:25.744Z,973.24
2019-04-03T07:11:23.788Z,973.14
2019-04-03T07:12:21.006Z,973.13
2019-04-03T07:13:21.100Z,973.19
2019-04-03T07:14:21.280Z,973.18
2019-04-03T07:15:22.364Z,973.15
2019-04-03T07:16:20.966Z,973.19
2019-04-03T07:17:20.991Z,973.14
2019-04-03T07:18:20.991Z,973.17
2019-04-03T07:19:20.985Z,973.17
2019-04-03T07:20:21.256Z,973.15
2019-04-03T07:21:22.754Z,973.16
2019-04-03T07:22:20.999Z,973.10
2019-04-03T07:23:21.018Z,973.12
2019-04-03T07:24:21.042Z,973.19
2019-04-03T07:25:21.048Z,973.17
2019-04-03T07:26:21.080Z,973.16
2019-04-03T07:27:21.172Z,973.16
2019-04-03T07:28:21.063Z,973.16
2019-04-03T07:29:21.097Z,973.12
2019-04-03T07:30:21.756Z,973.17
2019-04-03T07:31:23.247Z,973.11
2019-04-03T07:32:21.143Z,973.03
2019-04-03T07:33:21.160Z,973.11
2019-04-03T07:34:21.116Z,973.10
2019-04-03T07:35:21.110Z,973.14
2019-04-03T07:36:21.155Z,973.16
2019-04-03T07:37:21.128Z,973.17
2019-04-03T07:38:21.830Z,973.12
2019-04-03T07:39:21.128Z,973.22
2019-04-03T07:40:21.410Z,973.18
2019-04-03T07:41:23.309Z,973.17
2019-04-03T07:42:24.324Z,973.16
2019-04-03T07:43:21.107Z,973.13
2019-04-03T07:44:21.161Z,973.12
2019-04-03T07:45:21.156Z,973.12
2019-04-03T07:46:21.107Z,973.15
2019-04-03T07:47:21.152Z,973.15
2019-04-03T07:48:21.136Z,973.13
2019-04-03T07:49:21.291Z,973.13
2019-04-03T07:50:21.161Z,973.18
2019-04-03T07:51:21.139Z,973.14
2019-04-03T07:52:21.113Z,973.15
2019-04-03T07:53:21.109Z,973.17
2019-04-03T07:54:22.008Z,973.13
2019-04-03T07:55:22.145Z,973.12
2019-04-03T07:56:21.292Z,973.17
2019-04-03T07:57:21.293Z,973.14
2019-04-03T07:58:21.118Z,973.14
2019-04-03T07:59:21.153Z,973.08
2019-04-03T08:00:21.164Z,973.03
2019-04-03T08:01:21.143Z,973.07
2019-04-03T08:02:21.230Z,973.03
2019-04-03T08:03:21.619Z,973.26
2019-04-03T08:04:21.989Z,973.08
2019-04-03T08:05:21.141Z,973.13
2019-04-03T08:06:21.170Z,973.14
2019-04-03T08:07:21.153Z,973.16
2019-04-03T08:08:21.465Z,973.08
2019-04-03T08:09:21.438Z,973.16
2019-04-03T08:10:21.119Z,973.20
2019-04-03T08:11:21.176Z,973.15
2019-04-03T08:12:21.193Z,973.20
2019-04-03T08:13:21.155Z,973.17
2019-04-03T08:14:21.254Z,973.22
2019-04-03T08:15:21.153Z,973.16
2019-04-03T08:16:21.156Z,973.21
2019-04-03T08:17:21.193Z,973.14
2019-04-03T08:18:21.839Z,973.25
2019-04-03T08:19:22.982Z,973.19
2019-04-03T08:20:21.207Z,973.25
2019-04-03T08:21:21.179Z,973.22
2019-04-03T08:22:21.304Z,973.31
2019-04-03T08:23:21.159Z,973.27
2019-04-03T08:24:21.182Z,973.27
2019-04-03T08:25:21.163Z,973.32
2019-04-03T08:26:21.198Z,973.38
2019-04-03T08:27:23.353Z,973.35
2019-04-03T08:28:21.174Z,973.32
2019-04-03T08:29:21.168Z,973.27
2019-04-03T08:30:21.309Z,973.30
2019-04-03T08:31:21.179Z,973.42
2019-04-03T08:32:21.193Z,973.34
2019-04-03T08:33:25.602Z,973.30
2019-04-03T08:34:21.167Z,973.29
2019-04-03T08:35:23.064Z,973.30
2019-04-03T08:36:25.290Z,973.30
2019-04-03T08:37:29.748Z,973.30
2019-04-03T08:38:21.546Z,973.28
2019-04-03T08:39:21.403Z,973.32
2019-04-03T08:40:21.194Z,973.27
2019-04-03T08:41:22.141Z,973.30
2019-04-03T08:42:21.207Z,973.29
2019-04-03T08:43:21.194Z,973.22
2019-04-03T08:44:21.344Z,973.24
2019-04-03T08:45:22.114Z,973.37
2019-04-03T08:46:21.171Z,973.33
2019-04-03T08:47:21.202Z,973.30
2019-04-03T08:48:21.218Z,973.29
2019-04-03T08:49:21.313Z,973.22
2019-04-03T08:50:21.316Z,973.20
2019-04-03T08:51:21.211Z,973.27
2019-04-03T08:52:21.161Z,973.38
2019-04-03T08:53:21.211Z,973.28
2019-04-03T08:54:21.210Z,973.31
2019-04-03T08:55:21.195Z,973.22
2019-04-03T08:56:21.262Z,973.27
2019-04-03T08:57:21.180Z,973.22
2019-04-03T08:58:22.114Z,973.30
2019-04-03T08:59:21.526Z,973.29
2019-04-03T09:00:21.238Z,973.24
2019-04-03T09:01:21.213Z,973.22
2019-04-03T09:02:21.258Z,973.28
2019-04-03T09:03:21.207Z,973.18
2019-04-03T09:04:21.194Z,973.21
2019-04-03T09:05:21.265Z,973.21
2019-04-03T09:06:22.380Z,973.16
2019-04-03T09:07:21.489Z,973.13
2019-04-03T09:08:21.590Z,973.12
2019-04-03T09:09:21.284Z,973.14
2019-04-03T09:10:21.333Z,973.15
2019-04-03T09:11:21.304Z,973.10
2019-04-03T09:12:21.309Z,973.14
2019-04-03T09:13:23.345Z,973.15
2019-04-03T09:14:21.382Z,973.14
2019-04-03T09:15:21.551Z,973.08
2019-04-03T09:16:21.297Z,973.09
2019-04-03T09:17:21.280Z,973.09
2019-04-03T09:18:21.329Z,973.17
2019-04-03T09:19:21.469Z,973.14
2019-04-03T09:20:21.340Z,973.15
2019-04-03T09:21:21.705Z,973.11
2019-04-03T09:22:22.186Z,973.06
2019-04-03T09:23:21.415Z,973.12
2019-04-03T09:24:21.597Z,973.18
2019-04-03T09:25:21.457Z,973.08
2019-04-03T09:26:21.345Z,973.08
2019-04-03T09:27:21.393Z,973.16
2019-04-03T09:28:21.588Z,973.14
2019-04-03T09:29:21.340Z,973.10
2019-04-03T09:30:21.644Z,973.08
2019-04-03T09:31:21.329Z,973.03
2019-04-03T09:32:22.751Z,973.04
2019-04-03T09:33:22.929Z,973.03
2019-04-03T09:34:21.334Z,972.93
2019-04-03T09:35:21.344Z,973.03
2019-04-03T09:36:21.511Z,973.09
2019-04-03T09:37:21.352Z,973.06
2019-04-03T09:38:21.386Z,972.96
2019-04-03T09:39:21.695Z,973.05
2019-04-03T09:40:21.447Z,973.02
2019-04-03T09:41:21.536Z,973.01
2019-04-03T09:42:21.823Z,972.99
2019-04-03T09:43:22.234Z,973.01
2019-04-03T09:44:24.249Z,972.86
2019-04-03T09:45:21.383Z,972.85
2019-04-03T09:46:21.392Z,972.82
2019-04-03T09:47:21.360Z,972.85
2019-04-03T09:48:21.354Z,972.90
2019-04-03T09:49:21.367Z,972.93
2019-04-03T09:50:22.592Z,972.87
2019-04-03T09:51:22.799Z,972.73
2019-04-03T09:52:23.137Z,972.91
2019-04-03T09:53:21.345Z,972.90
2019-04-03T09:54:21.363Z,972.81
2019-04-03T09:55:21.349Z,972.77
2019-04-03T09:56:21.392Z,972.81
2019-04-03T09:57:21.368Z,972.92
2019-04-03T09:58:21.552Z,972.74
2019-04-03T09:59:21.366Z,972.85
2019-04-03T10:00:21.625Z,972.79
2019-04-03T10:01:21.769Z,972.76
2019-04-03T10:02:21.425Z,972.78
2019-04-03T10:03:23.469Z,972.79
2019-04-03T10:04:21.570Z,972.70
2019-04-03T10:05:21.638Z,972.63
2019-04-03T10:06:21.455Z,972.73
2019-04-03T10:07:21.754Z,972.71
2019-04-03T10:08:21.590Z,972.61
2019-04-03T10:09:21.532Z,972.61
2019-04-03T10:10:21.477Z,972.65
2019-04-03T10:11:21.494Z,972.64
2019-04-03T10:12:22.708Z,972.60
2019-04-03T10:13:24.514Z,972.53
2019-04-03T10:14:21.709Z,972.62
2019-04-03T10:15:21.921Z,972.62
2019-04-03T10:16:21.505Z,972.65
2019-04-03T10:17:21.513Z,972.65
2019-04-03T10:18:22.176Z,972.56
2019-04-03T10:19:21.533Z,972.56
2019-04-03T10:20:21.563Z,972.55
2019-04-03T10:21:21.549Z,972.61
2019-04-03T10:22:23.758Z,972.51
2019-04-03T10:23:21.535Z,972.57
2019-04-03T10:24:21.550Z,972.69
2019-04-03T10:25:21.585Z,972.66
2019-04-03T10:26:21.583Z,972.59
2019-04-03T10:27:21.583Z,972.55
2019-04-03T10:28:21.538Z,972.63
2019-04-03T10:29:21.897Z,972.55
2019-04-03T10:30:22.371Z,972.60
2019-04-03T10:31:23.377Z,972.52
2019-04-03T10:32:21.570Z,972.48
2019-04-03T10:33:21.544Z,972.48
2019-04-03T10:34:21.531Z,972.50
2019-04-03T10:35:21.635Z,972.45
2019-04-03T10:36:21.571Z,972.37
2019-04-03T10:37:21.545Z,972.26
2019-04-03T10:38:21.643Z,972.30
2019-04-03T10:39:21.569Z,972.38
2019-04-03T10:40:23.653Z,972.43
2019-04-03T10:41:21.611Z,972.45
2019-04-03T10:42:21.559Z,972.45
2019-04-03T10:43:21.552Z,972.38
2019-04-03T10:44:21.845Z,972.33
2019-04-03T10:45:21.572Z,972.32
2019-04-03T10:46:21.549Z,972.35
2019-04-03T10:47:25.284Z,972.40
2019-04-03T10:48:21.591Z,972.30
2019-04-03T10:49:21.645Z,972.37
2019-04-03T10:50:21.909Z,972.40
2019-04-03T10:51:21.930Z,972.37
2019-04-03T10:52:21.549Z,972.29
2019-04-03T10:53:21.836Z,972.41
2019-04-03T10:54:21.928Z,972.43
2019-04-03T10:55:21.560Z,972.28
2019-04-03T10:56:21.585Z,972.22
2019-04-03T10:57:21.792Z,972.19
2019-04-03T10:58:21.570Z,972.12
2019-04-03T10:59:21.574Z,972.14
2019-04-03T11:00:22.074Z,972.30
2019-04-03T11:01:21.581Z,972.21
2019-04-03T11:02:21.605Z,972.14
2019-04-03T11:03:21.757Z,972.18
2019-04-03T11:04:21.771Z,972.12
2019-04-03T11:05:21.588Z,972.19
2019-04-03T11:06:21.576Z,972.17
2019-04-03T11:07:21.568Z,972.25
2019-04-03T11:08:21.622Z,972.09
2019-04-03T11:09:21.667Z,972.13
2019-04-03T11:10:23.487Z,972.15
2019-04-03T11:11:21.579Z,972.26
2019-04-03T11:12:21.595Z,972.20
2019-04-03T11:13:21.588Z,972.15
2019-04-03T11:14:21.602Z,972.16
2019-04-03T11:15:21.653Z,972.09
2019-04-03T11:16:21.571Z,972.08
2019-04-03T11:17:21.956Z,972.03
2019-04-03T11:18:21.857Z,971.85
2019-04-03T11:19:21.593Z,971.92
2019-04-03T11:20:21.771Z,971.87
2019-04-03T11:21:21.614Z,971.86
2019-04-03T11:22:21.587Z,971.83
2019-04-03T11:23:36.051Z,971.83
2019-04-03T11:24:21.638Z,971.80
2019-04-03T11:25:21.689Z,971.86
2019-04-03T11:26:24.032Z,971.78
2019-04-03T11:27:25.061Z,971.74
2019-04-03T11:28:21.676Z,971.74
2019-04-03T11:29:21.612Z,971.84
2019-04-03T11:30:23.844Z,971.84
2019-04-03T11:31:26.657Z,971.73
2019-04-03T11:32:23.183Z,971.66
2019-04-03T11:33:21.606Z,971.72
2019-04-03T11:34:21.602Z,971.78
2019-04-03T11:35:22.397Z,971.83
2019-04-03T11:36:23.289Z,971.78
2019-04-03T11:37:21.828Z,971.77
2019-04-03T11:38:27.009Z,971.76
2019-04-03T11:39:21.952Z,971.54
2019-04-03T11:40:24.228Z,971.54
2019-04-03T11:41:23.513Z,971.65
2019-04-03T11:42:25.214Z,971.49
2019-04-03T11:43:21.917Z,971.56
2019-04-03T11:44:21.672Z,971.76
2019-04-03T11:45:21.644Z,971.67
2019-04-03T11:46:21.826Z,971.60
2019-04-03T11:47:21.674Z,971.62
2019-04-03T11:48:21.635Z,971.47
2019-04-03T11:49:21.642Z,971.40
2019-04-03T11:50:23.472Z,971.50
2019-04-03T11:51:21.642Z,971.47
2019-04-03T11:52:21.783Z,971.55
2019-04-03T11:53:21.676Z,971.45
2019-04-03T11:54:21.726Z,971.51
2019-04-03T11:55:21.662Z,971.47
2019-04-03T11:56:21.766Z,971.47
2019-04-03T11:57:21.833Z,971.41
2019-04-03T11:58:22.423Z,971.64
2019-04-03T11:59:23.711Z,971.53
2019-04-03T12:00:21.975Z,971.40
2019-04-03T12:01:21.856Z,971.44
2019-04-03T12:02:21.826Z,971.50
2019-04-03T12:03:21.983Z,971.51
2019-04-03T12:04:21.706Z,971.41
2019-04-03T12:05:21.700Z,971.55
2019-04-03T12:06:21.966Z,971.42
2019-04-03T12:07:22.856Z,971.35
2019-04-03T12:08:21.780Z,971.44
2019-04-03T12:09:21.706Z,971.51
2019-04-03T12:10:21.667Z,971.39
2019-04-03T12:11:21.700Z,971.16
2019-04-03T12:12:21.669Z,971.40
2019-04-03T12:13:21.990Z,971.39
2019-04-03T12:14:21.657Z,971.31
2019-04-03T12:15:22.291Z,971.29
2019-04-03T12:16:24.019Z,971.26
2019-04-03T12:17:21.712Z,971.27
2019-04-03T12:18:21.967Z,971.11
2019-04-03T12:19:21.648Z,971.07
2019-04-03T12:20:21.676Z,971.19
2019-04-03T12:21:21.731Z,971.13
2019-04-03T12:22:21.993Z,971.10
2019-04-03T12:23:21.687Z,971.14
2019-04-03T12:24:21.684Z,971.12
2019-04-03T12:25:21.651Z,971.21
2019-04-03T12:26:21.678Z,971.18
2019-04-03T12:27:21.711Z,971.06
2019-04-03T12:28:21.820Z,970.96